sensor_id;sensor_type;location;lat;lon;timestamp;P1;durP1;ratioP1;P2;durP2;ratioP2
5299;SDS011;70402;42.670;23.258;2024-03-02T00:01:37;16.53;;;8.93;;
5299;SDS011;70402;42.670;23.258;2024-03-02T00:04:05;17.70;;;9.00;;
5299;SDS011;70402;42.670;23.258;2024-03-02T00:06:31;13.73;;;8.00;;
5299;SDS011;70402;42.670;23.258;2024-03-02T00:08:58;17.20;;;9.60;;
5299;SDS011;70402;42.670;23.258;2024-03-02T00:11:24;16.90;;;8.30;;
5299;SDS011;70402;42.670;23.258;2024-03-02T00:13:52;13.50;;;8.27;;
5299;SDS011;70402;42.670;23.258;2024-03-02T00:16:19;17.50;;;8.40;;
5299;SDS011;70402;42.670;23.258;2024-03-02T00:18:45;18.00;;;8.57;;
5299;SDS011;70402;42.670;23.258;2024-03-02T00:21:11;10.80;;;7.00;;
5299;SDS011;70402;42.670;23.258;2024-03-02T00:23:39;13.13;;;7.73;;
5299;SDS011;70402;42.670;23.258;2024-03-02T00:26:06;15.00;;;8.07;;
5299;SDS011;70402;42.670;23.258;2024-03-02T00:28:34;16.80;;;8.97;;
5299;SDS011;70402;42.670;23.258;2024-03-02T00:31:04;15.97;;;9.07;;
5299;SDS011;70402;42.670;23.258;2024-03-02T00:33:35;16.57;;;8.70;;
5299;SDS011;70402;42.670;23.258;2024-03-02T00:36:02;13.80;;;8.67;;
5299;SDS011;70402;42.670;23.258;2024-03-02T00:38:28;16.07;;;8.93;;
5299;SDS011;70402;42.670;23.258;2024-03-02T00:40:54;20.60;;;8.57;;
5299;SDS011;70402;42.670;23.258;2024-03-02T00:46:00;15.30;;;8.33;;
5299;SDS011;70402;42.670;23.258;2024-03-02T00:48:26;17.13;;;8.13;;
5299;SDS011;70402;42.670;23.258;2024-03-02T00:50:52;14.80;;;8.57;;
5299;SDS011;70402;42.670;23.258;2024-03-02T00:53:20;14.70;;;8.00;;
5299;SDS011;70402;42.670;23.258;2024-03-02T00:55:49;16.87;;;7.83;;
5299;SDS011;70402;42.670;23.258;2024-03-02T00:58:15;19.20;;;8.67;;
5299;SDS011;70402;42.670;23.258;2024-03-02T01:00:41;20.17;;;9.73;;
5299;SDS011;70402;42.670;23.258;2024-03-02T01:03:07;19.07;;;9.03;;
5299;SDS011;70402;42.670;23.258;2024-03-02T01:05:35;15.87;;;8.00;;
5299;SDS011;70402;42.670;23.258;2024-03-02T01:08:02;17.83;;;8.90;;
5299;SDS011;70402;42.670;23.258;2024-03-02T01:10:28;15.00;;;9.03;;
5299;SDS011;70402;42.670;23.258;2024-03-02T01:12:54;18.07;;;9.00;;
5299;SDS011;70402;42.670;23.258;2024-03-02T01:15:20;17.67;;;8.93;;
5299;SDS011;70402;42.670;23.258;2024-03-02T01:17:47;15.90;;;8.10;;
5299;SDS011;70402;42.670;23.258;2024-03-02T01:20:13;14.93;;;8.63;;
5299;SDS011;70402;42.670;23.258;2024-03-02T01:22:39;18.87;;;9.20;;
5299;SDS011;70402;42.670;23.258;2024-03-02T01:25:05;16.83;;;9.47;;
5299;SDS011;70402;42.670;23.258;2024-03-02T01:27:31;15.30;;;9.47;;
5299;SDS011;70402;42.670;23.258;2024-03-02T01:29:58;16.50;;;9.37;;
5299;SDS011;70402;42.670;23.258;2024-03-02T01:32:25;23.63;;;9.50;;
5299;SDS011;70402;42.670;23.258;2024-03-02T01:34:51;15.37;;;9.10;;
5299;SDS011;70402;42.670;23.258;2024-03-02T01:37:17;16.07;;;8.90;;
5299;SDS011;70402;42.670;23.258;2024-03-02T01:39:43;13.47;;;7.80;;
5299;SDS011;70402;42.670;23.258;2024-03-02T01:42:09;19.93;;;9.67;;
5299;SDS011;70402;42.670;23.258;2024-03-02T01:44:36;15.60;;;7.50;;
5299;SDS011;70402;42.670;23.258;2024-03-02T01:47:02;21.50;;;8.90;;
5299;SDS011;70402;42.670;23.258;2024-03-02T01:49:28;16.60;;;9.20;;
5299;SDS011;70402;42.670;23.258;2024-03-02T01:51:54;18.17;;;9.40;;
5299;SDS011;70402;42.670;23.258;2024-03-02T01:54:20;17.60;;;9.47;;
5299;SDS011;70402;42.670;23.258;2024-03-02T01:56:47;15.60;;;8.50;;
5299;SDS011;70402;42.670;23.258;2024-03-02T01:59:13;16.50;;;8.70;;
5299;SDS011;70402;42.670;23.258;2024-03-02T02:01:39;20.50;;;9.97;;
5299;SDS011;70402;42.670;23.258;2024-03-02T02:04:05;15.77;;;8.50;;
5299;SDS011;70402;42.670;23.258;2024-03-02T02:06:32;14.60;;;8.43;;
5299;SDS011;70402;42.670;23.258;2024-03-02T02:08:58;17.90;;;10.07;;
5299;SDS011;70402;42.670;23.258;2024-03-02T02:11:24;19.23;;;7.40;;
5299;SDS011;70402;42.670;23.258;2024-03-02T02:13:51;16.00;;;8.37;;
5299;SDS011;70402;42.670;23.258;2024-03-02T02:16:17;19.03;;;9.90;;
5299;SDS011;70402;42.670;23.258;2024-03-02T02:18:43;16.90;;;9.33;;
5299;SDS011;70402;42.670;23.258;2024-03-02T02:21:09;16.63;;;9.50;;
5299;SDS011;70402;42.670;23.258;2024-03-02T02:23:35;15.80;;;9.33;;
5299;SDS011;70402;42.670;23.258;2024-03-02T02:26:02;16.63;;;9.30;;
5299;SDS011;70402;42.670;23.258;2024-03-02T02:28:29;20.70;;;9.00;;
5299;SDS011;70402;42.670;23.258;2024-03-02T02:30:55;21.30;;;10.50;;
5299;SDS011;70402;42.670;23.258;2024-03-02T02:33:21;17.50;;;9.37;;
5299;SDS011;70402;42.670;23.258;2024-03-02T02:35:47;15.73;;;9.60;;
5299;SDS011;70402;42.670;23.258;2024-03-02T02:38:13;18.10;;;9.20;;
5299;SDS011;70402;42.670;23.258;2024-03-02T02:40:40;19.40;;;9.83;;
5299;SDS011;70402;42.670;23.258;2024-03-02T02:43:06;14.67;;;8.43;;
5299;SDS011;70402;42.670;23.258;2024-03-02T02:45:32;16.67;;;9.23;;
5299;SDS011;70402;42.670;23.258;2024-03-02T02:47:58;22.03;;;10.80;;
5299;SDS011;70402;42.670;23.258;2024-03-02T02:50:26;20.20;;;10.70;;
5299;SDS011;70402;42.670;23.258;2024-03-02T02:52:52;23.33;;;10.00;;
5299;SDS011;70402;42.670;23.258;2024-03-02T02:55:18;17.00;;;9.53;;
5299;SDS011;70402;42.670;23.258;2024-03-02T02:57:44;21.73;;;10.40;;
5299;SDS011;70402;42.670;23.258;2024-03-02T03:02:41;21.87;;;10.43;;
5299;SDS011;70402;42.670;23.258;2024-03-02T03:05:12;23.00;;;11.00;;
5299;SDS011;70402;42.670;23.258;2024-03-02T03:07:39;20.63;;;10.87;;
5299;SDS011;70402;42.670;23.258;2024-03-02T03:10:06;23.77;;;11.00;;
5299;SDS011;70402;42.670;23.258;2024-03-02T03:12:33;19.53;;;10.77;;
5299;SDS011;70402;42.670;23.258;2024-03-02T03:14:59;23.80;;;11.97;;
5299;SDS011;70402;42.670;23.258;2024-03-02T03:17:25;21.13;;;10.43;;
5299;SDS011;70402;42.670;23.258;2024-03-02T03:19:54;23.17;;;11.13;;
5299;SDS011;70402;42.670;23.258;2024-03-02T03:22:21;25.90;;;12.97;;
5299;SDS011;70402;42.670;23.258;2024-03-02T03:24:47;22.70;;;11.63;;
5299;SDS011;70402;42.670;23.258;2024-03-02T03:27:14;22.40;;;11.53;;
5299;SDS011;70402;42.670;23.258;2024-03-02T03:29:40;19.83;;;10.83;;
5299;SDS011;70402;42.670;23.258;2024-03-02T03:32:06;22.03;;;10.53;;
5299;SDS011;70402;42.670;23.258;2024-03-02T03:34:33;19.67;;;9.93;;
5299;SDS011;70402;42.670;23.258;2024-03-02T03:36:59;20.70;;;12.13;;
5299;SDS011;70402;42.670;23.258;2024-03-02T03:39:25;17.03;;;10.40;;
5299;SDS011;70402;42.670;23.258;2024-03-02T03:41:52;26.37;;;12.93;;
5299;SDS011;70402;42.670;23.258;2024-03-02T03:44:18;20.37;;;11.13;;
5299;SDS011;70402;42.670;23.258;2024-03-02T03:46:44;25.67;;;12.17;;
5299;SDS011;70402;42.670;23.258;2024-03-02T03:49:10;26.50;;;12.67;;
5299;SDS011;70402;42.670;23.258;2024-03-02T03:51:37;25.53;;;12.00;;
5299;SDS011;70402;42.670;23.258;2024-03-02T03:54:03;23.50;;;10.73;;
5299;SDS011;70402;42.670;23.258;2024-03-02T03:56:29;18.97;;;10.27;;
5299;SDS011;70402;42.670;23.258;2024-03-02T03:58:55;21.67;;;11.10;;
5299;SDS011;70402;42.670;23.258;2024-03-02T04:01:21;21.87;;;12.30;;
5299;SDS011;70402;42.670;23.258;2024-03-02T04:03:48;21.80;;;12.40;;
5299;SDS011;70402;42.670;23.258;2024-03-02T04:06:14;24.70;;;11.90;;
5299;SDS011;70402;42.670;23.258;2024-03-02T04:08:42;20.47;;;10.83;;
5299;SDS011;70402;42.670;23.258;2024-03-02T04:11:08;20.00;;;11.00;;
5299;SDS011;70402;42.670;23.258;2024-03-02T04:13:34;19.07;;;10.90;;
5299;SDS011;70402;42.670;23.258;2024-03-02T04:16:01;30.93;;;14.23;;
5299;SDS011;70402;42.670;23.258;2024-03-02T04:18:29;19.00;;;10.97;;
5299;SDS011;70402;42.670;23.258;2024-03-02T04:20:55;21.13;;;11.00;;
5299;SDS011;70402;42.670;23.258;2024-03-02T04:23:21;20.50;;;10.20;;
5299;SDS011;70402;42.670;23.258;2024-03-02T04:25:47;25.83;;;12.80;;
5299;SDS011;70402;42.670;23.258;2024-03-02T04:28:13;24.60;;;12.13;;
5299;SDS011;70402;42.670;23.258;2024-03-02T04:30:39;24.70;;;12.07;;
5299;SDS011;70402;42.670;23.258;2024-03-02T04:33:06;22.60;;;10.70;;
5299;SDS011;70402;42.670;23.258;2024-03-02T04:35:35;24.33;;;13.13;;
5299;SDS011;70402;42.670;23.258;2024-03-02T04:38:01;23.80;;;12.20;;
5299;SDS011;70402;42.670;23.258;2024-03-02T04:40:27;22.67;;;11.63;;
5299;SDS011;70402;42.670;23.258;2024-03-02T04:42:53;29.20;;;11.90;;
5299;SDS011;70402;42.670;23.258;2024-03-02T04:45:20;25.03;;;12.13;;
5299;SDS011;70402;42.670;23.258;2024-03-02T04:47:46;24.13;;;12.90;;
5299;SDS011;70402;42.670;23.258;2024-03-02T04:50:12;23.83;;;12.80;;
5299;SDS011;70402;42.670;23.258;2024-03-02T04:52:38;23.77;;;12.70;;
5299;SDS011;70402;42.670;23.258;2024-03-02T04:55:04;20.63;;;11.43;;
5299;SDS011;70402;42.670;23.258;2024-03-02T04:57:49;21.63;;;12.00;;
5299;SDS011;70402;42.670;23.258;2024-03-02T05:00:16;24.13;;;10.67;;
5299;SDS011;70402;42.670;23.258;2024-03-02T05:02:42;26.90;;;13.23;;
5299;SDS011;70402;42.670;23.258;2024-03-02T05:05:08;20.90;;;10.47;;
5299;SDS011;70402;42.670;23.258;2024-03-02T05:07:34;18.10;;;11.50;;
5299;SDS011;70402;42.670;23.258;2024-03-02T05:10:01;28.07;;;13.07;;
5299;SDS011;70402;42.670;23.258;2024-03-02T05:12:27;19.80;;;10.60;;
5299;SDS011;70402;42.670;23.258;2024-03-02T05:15:09;23.90;;;12.13;;
5299;SDS011;70402;42.670;23.258;2024-03-02T05:17:38;25.93;;;12.53;;
5299;SDS011;70402;42.670;23.258;2024-03-02T05:20:05;22.30;;;10.63;;
5299;SDS011;70402;42.670;23.258;2024-03-02T05:22:32;21.80;;;12.60;;
5299;SDS011;70402;42.670;23.258;2024-03-02T05:24:59;18.37;;;11.13;;
5299;SDS011;70402;42.670;23.258;2024-03-02T05:27:26;24.80;;;13.07;;
5299;SDS011;70402;42.670;23.258;2024-03-02T05:29:52;24.00;;;10.90;;
5299;SDS011;70402;42.670;23.258;2024-03-02T05:32:18;21.07;;;12.20;;
5299;SDS011;70402;42.670;23.258;2024-03-02T05:34:44;22.10;;;11.47;;
5299;SDS011;70402;42.670;23.258;2024-03-02T05:37:11;21.00;;;11.53;;
5299;SDS011;70402;42.670;23.258;2024-03-02T05:39:37;22.50;;;12.03;;
5299;SDS011;70402;42.670;23.258;2024-03-02T05:42:03;23.90;;;12.00;;
5299;SDS011;70402;42.670;23.258;2024-03-02T05:44:29;20.90;;;11.20;;
5299;SDS011;70402;42.670;23.258;2024-03-02T05:46:56;20.53;;;11.67;;
5299;SDS011;70402;42.670;23.258;2024-03-02T05:49:22;22.73;;;12.23;;
5299;SDS011;70402;42.670;23.258;2024-03-02T05:51:48;21.53;;;12.13;;
5299;SDS011;70402;42.670;23.258;2024-03-02T05:54:14;23.13;;;12.17;;
5299;SDS011;70402;42.670;23.258;2024-03-02T05:56:40;20.10;;;10.87;;
5299;SDS011;70402;42.670;23.258;2024-03-02T05:59:06;20.70;;;10.10;;
5299;SDS011;70402;42.670;23.258;2024-03-02T06:01:41;19.40;;;11.13;;
5299;SDS011;70402;42.670;23.258;2024-03-02T06:04:08;18.93;;;10.87;;
5299;SDS011;70402;42.670;23.258;2024-03-02T06:06:36;22.17;;;11.97;;
5299;SDS011;70402;42.670;23.258;2024-03-02T06:09:02;18.20;;;11.03;;
5299;SDS011;70402;42.670;23.258;2024-03-02T06:11:37;25.70;;;12.80;;
5299;SDS011;70402;42.670;23.258;2024-03-02T06:14:04;24.77;;;12.87;;
5299;SDS011;70402;42.670;23.258;2024-03-02T06:16:30;24.50;;;13.37;;
5299;SDS011;70402;42.670;23.258;2024-03-02T06:18:57;24.67;;;14.27;;
